createdAt,value
2023-05-01T00:00:14.732Z,96114.66
2023-05-01T00:05:21.674Z,96123.06
2023-05-01T00:10:24.408Z,96141.47
2023-05-01T00:15:26.659Z,96145.13
2023-05-01T00:20:30.030Z,96171.22
2023-05-01T00:25:32.833Z,96176.63
2023-05-01T00:30:36.462Z,96154.19
2023-05-01T00:35:38.697Z,96144.56
2023-05-01T00:40:45.388Z,96164.41
2023-05-01T00:45:48.063Z,96137.00
2023-05-01T00:50:50.809Z,96125.13
2023-05-01T00:55:54.799Z,96144.75
2023-05-01T01:00:57.657Z,96158.72
2023-05-01T01:06:20.684Z,96193.25
2023-05-01T01:11:42.202Z,96203.91
2023-05-01T01:16:54.310Z,96218.59
2023-05-01T01:22:13.149Z,96192.88
2023-05-01T01:27:30.959Z,96238.53
2023-05-01T01:32:48.681Z,96210.84
2023-05-01T01:38:09.368Z,96196.72
2023-05-01T01:43:15.165Z,96196.09
2023-05-01T01:48:26.198Z,96209.06
2023-05-01T01:53:31.571Z,96199.78
2023-05-01T01:58:37.397Z,96242.47
2023-05-01T02:03:41.166Z,96229.31
2023-05-01T02:08:47.721Z,96206.53
2023-05-01T02:13:52.170Z,96197.94
2023-05-01T02:18:56.952Z,96208.94
2023-05-01T02:24:02.841Z,96231.75
2023-05-01T02:29:07.737Z,96223.44
2023-05-01T02:34:10.009Z,96219.44
2023-05-01T02:39:12.780Z,96242.91
2023-05-01T02:44:16.536Z,96252.44
2023-05-01T02:49:20.670Z,96243.38
2023-05-01T02:54:23.499Z,96234.66
2023-05-01T02:59:26.226Z,96271.41
2023-05-01T03:04:29.257Z,96232.59
2023-05-01T03:09:32.299Z,96266.19
2023-05-01T03:14:35.217Z,96246.22
2023-05-01T03:19:37.755Z,96264.66
2023-05-01T03:24:40.388Z,96281.38
2023-05-01T03:29:42.564Z,96292.19
2023-05-01T03:34:46.074Z,96263.50
2023-05-01T03:39:49.282Z,96265.63
2023-05-01T03:45:11.755Z,96294.34
2023-05-01T03:50:14.851Z,96292.63
2023-05-01T03:55:20.062Z,96286.25
2023-05-01T04:00:24.476Z,96295.69
2023-05-01T04:05:27.130Z,96280.59
2023-05-01T04:10:36.282Z,96324.53
2023-05-01T04:15:40.232Z,96335.03
2023-05-01T04:20:43.006Z,96319.34
2023-05-01T04:25:46.984Z,96316.69
2023-05-01T04:30:53.330Z,96327.56
2023-05-01T04:35:56.120Z,96317.00
2023-05-01T04:40:59.301Z,96323.91
2023-05-01T04:46:04.498Z,96298.97
2023-05-01T04:51:08.683Z,96324.44
2023-05-01T04:56:11.364Z,96337.22
2023-05-01T05:01:14.010Z,96348.53
2023-05-01T05:06:16.998Z,96340.25
2023-05-01T05:11:21.557Z,96337.75
2023-05-01T05:16:36.575Z,96328.25
2023-05-01T05:21:39.222Z,96308.06
2023-05-01T05:26:42.014Z,96302.03
2023-05-01T05:31:45.202Z,96341.31
2023-05-01T05:36:47.906Z,96332.97
2023-05-01T05:41:54.142Z,96319.00
2023-05-01T05:46:57.446Z,96347.28
2023-05-01T05:52:11.787Z,96339.53
2023-05-01T05:57:15.335Z,96343.34
2023-05-01T06:02:24.131Z,96336.25
2023-05-01T06:07:26.937Z,96336.25
2023-05-01T06:12:29.942Z,96322.22
2023-05-01T06:17:34.839Z,96317.38
2023-05-01T06:22:37.578Z,96309.19
2023-05-01T06:27:49.225Z,96317.97
2023-05-01T06:32:52.390Z,96305.06
2023-05-01T06:37:56.344Z,96328.66
2023-05-01T06:42:59.191Z,96305.34
2023-05-01T06:48:04.576Z,96292.81
2023-05-01T06:53:07.518Z,96315.69
2023-05-01T06:58:22.592Z,96296.06
2023-05-01T07:03:30.615Z,96313.13
2023-05-01T07:08:33.280Z,96325.06
2023-05-01T07:13:35.723Z,96332.38
2023-05-01T07:18:38.593Z,96319.22
2023-05-01T07:23:41.229Z,96325.31
2023-05-01T07:28:43.929Z,96355.34
2023-05-01T07:33:46.257Z,96332.41
2023-05-01T07:38:49.536Z,96366.94
2023-05-01T07:43:51.904Z,96351.63
2023-05-01T07:48:54.809Z,96359.06
2023-05-01T07:53:57.650Z,96389.47
2023-05-01T07:59:00.216Z,96389.97
2023-05-01T08:04:03.193Z,96388.00
2023-05-01T08:09:05.878Z,96391.50
2023-05-01T08:14:08.587Z,96384.69
2023-05-01T08:19:11.265Z,96399.88
2023-05-01T08:24:13.899Z,96392.72
2023-05-01T08:29:16.503Z,96404.91
2023-05-01T08:34:19.133Z,96385.22
2023-05-01T08:39:21.846Z,96381.84
2023-05-01T08:44:26.857Z,96400.09
2023-05-01T08:49:33.843Z,96390.50
2023-05-01T08:54:39.203Z,96417.53
2023-05-01T08:59:42.258Z,96399.06
2023-05-01T09:04:46.947Z,96403.13
2023-05-01T09:09:49.606Z,96363.19
2023-05-01T09:14:57.116Z,96368.06
2023-05-01T09:20:01.979Z,96378.22
2023-05-01T09:25:04.909Z,96361.69
2023-05-01T09:30:09.174Z,96377.03
2023-05-01T09:35:13.622Z,96399.63
2023-05-01T09:40:16.284Z,96383.19
2023-05-01T09:45:20.204Z,96395.69
2023-05-01T09:50:34.614Z,96371.53
2023-05-01T09:55:37.234Z,96378.09
2023-05-01T10:00:51.813Z,96395.50
2023-05-01T10:05:57.122Z,96369.00
2023-05-01T10:11:05.365Z,96374.75
2023-05-01T10:16:14.811Z,96396.00
2023-05-01T10:21:17.644Z,96383.06
2023-05-01T10:26:21.075Z,96379.47
2023-05-01T10:31:23.282Z,96371.53
2023-05-01T10:36:40.742Z,96340.38
2023-05-01T10:41:59.799Z,96376.66
2023-05-01T10:47:25.423Z,96358.13
2023-05-01T10:52:28.291Z,96371.69
2023-05-01T10:57:44.631Z,96364.19
2023-05-01T11:02:47.762Z,96350.47
2023-05-01T11:08:28.741Z,96335.47
2023-05-01T11:14:00.510Z,96387.94
2023-05-01T11:19:03.283Z,96395.91
2023-05-01T11:24:09.686Z,96410.91
2023-05-01T11:29:12.851Z,96402.72
2023-05-01T11:34:16.472Z,96391.59
2023-05-01T11:39:20.248Z,96379.59
2023-05-01T11:44:22.330Z,96397.38
2023-05-01T11:49:31.549Z,96379.66
2023-05-01T11:54:47.954Z,96373.94
2023-05-01T11:59:50.914Z,96338.50
2023-05-01T12:04:54.272Z,96322.34
2023-05-01T12:09:57.078Z,96367.78
2023-05-01T12:14:59.959Z,96359.25
2023-05-01T12:20:04.557Z,96394.09
2023-05-01T12:25:07.733Z,96406.84
2023-05-01T12:30:11.050Z,96414.66
2023-05-01T12:35:16.268Z,96417.50
2023-05-01T12:40:19.253Z,96373.75
2023-05-01T12:45:21.912Z,96398.25
2023-05-01T12:50:24.665Z,96409.31
2023-05-01T12:55:27.640Z,96435.00
2023-05-01T13:00:49.053Z,96434.16
2023-05-01T13:05:53.449Z,96419.47
2023-05-01T13:10:57.876Z,96417.91
2023-05-01T13:16:16.642Z,96393.69
2023-05-01T13:21:24.143Z,96423.69
2023-05-01T13:26:36.190Z,96402.34
2023-05-01T13:31:43.097Z,96398.69
2023-05-01T13:36:46.605Z,96412.53
2023-05-01T13:41:50.904Z,96405.66
2023-05-01T13:46:53.478Z,96394.38
2023-05-01T13:51:56.233Z,96398.00
2023-05-01T13:56:59.732Z,96391.03
2023-05-01T14:02:02.925Z,96393.81
2023-05-01T14:07:05.872Z,96401.38
2023-05-01T14:12:08.345Z,96387.13
2023-05-01T14:17:12.053Z,96375.66
2023-05-01T14:22:14.651Z,96391.44
2023-05-01T14:27:16.887Z,96408.22
2023-05-01T14:32:19.763Z,96395.38
2023-05-01T14:37:22.272Z,96385.72
2023-05-01T14:42:25.012Z,96381.53
2023-05-01T14:47:27.191Z,96387.66
2023-05-01T14:52:30.277Z,96391.06
2023-05-01T14:57:32.546Z,96371.06
2023-05-01T15:02:35.654Z,96364.91
2023-05-01T15:07:38.467Z,96395.19
2023-05-01T15:12:41.474Z,96359.16
2023-05-01T15:17:44.229Z,96361.41
2023-05-01T15:22:46.439Z,96368.78
2023-05-01T15:27:50.577Z,96392.84
2023-05-01T15:32:55.662Z,96403.63
2023-05-01T15:37:58.515Z,96391.81
2023-05-01T15:43:01.915Z,96415.34
2023-05-01T15:48:05.106Z,96386.00
2023-05-01T15:53:07.231Z,96383.34
2023-05-01T15:58:09.891Z,96388.38
2023-05-01T16:03:13.582Z,96386.41
2023-05-01T16:08:19.528Z,96411.81
2023-05-01T16:13:22.217Z,96426.50
2023-05-01T16:18:25.911Z,96424.09
2023-05-01T16:23:28.841Z,96389.66
2023-05-01T16:28:31.586Z,96442.59
2023-05-01T16:33:34.218Z,96443.16
2023-05-01T16:38:38.239Z,96440.59
2023-05-01T16:43:40.852Z,96440.91
2023-05-01T16:48:43.843Z,96446.63
2023-05-01T16:53:46.893Z,96446.63
2023-05-01T16:58:49.598Z,96459.38
2023-05-01T17:03:52.679Z,96463.63
2023-05-01T17:08:55.291Z,96476.03
2023-05-01T17:13:57.875Z,96461.88
2023-05-01T17:19:01.751Z,96488.06
2023-05-01T17:24:04.810Z,96498.66
2023-05-01T17:29:07.416Z,96500.84
2023-05-01T17:34:09.648Z,96498.66
2023-05-01T17:39:12.290Z,96520.81
2023-05-01T17:44:14.497Z,96507.34
2023-05-01T17:49:17.581Z,96534.44
2023-05-01T17:54:20.332Z,96542.09
2023-05-01T17:59:23.024Z,96547.09
2023-05-01T18:04:25.743Z,96538.34
2023-05-01T18:09:28.378Z,96542.75
2023-05-01T18:14:30.745Z,96515.03
2023-05-01T18:19:33.418Z,96561.63
2023-05-01T18:24:35.880Z,96578.72
2023-05-01T18:29:38.625Z,96584.16
2023-05-01T18:34:40.858Z,96584.16
2023-05-01T18:39:43.568Z,96581.59
2023-05-01T18:44:46.554Z,96579.25
2023-05-01T18:49:49.683Z,96605.50
2023-05-01T18:54:51.857Z,96610.03
2023-05-01T18:59:54.422Z,96627.63
2023-05-01T19:04:58.289Z,96624.25
2023-05-01T19:10:01.393Z,96606.09
2023-05-01T19:15:03.959Z,96625.81
2023-05-01T19:20:07.436Z,96627.53
2023-05-01T19:25:10.379Z,96633.69
2023-05-01T19:30:13.352Z,96616.28
2023-05-01T19:35:16.490Z,96650.31
2023-05-01T19:40:18.738Z,96643.44
2023-05-01T19:45:21.389Z,96654.72
2023-05-01T19:50:23.958Z,96634.53
2023-05-01T19:55:27.119Z,96636.53
2023-05-01T20:00:29.722Z,96651.16
2023-05-01T20:05:32.808Z,96657.13
2023-05-01T20:10:35.487Z,96666.72
2023-05-01T20:15:39.306Z,96657.69
2023-05-01T20:20:42.085Z,96631.28
2023-05-01T20:25:46.730Z,96657.56
2023-05-01T20:30:49.070Z,96666.97
2023-05-01T20:35:51.844Z,96650.56
2023-05-01T20:40:54.832Z,96672.19
2023-05-01T20:45:57.475Z,96691.00
2023-05-01T20:51:08.193Z,96680.50
2023-05-01T20:56:10.852Z,96708.34
2023-05-01T21:01:13.810Z,96672.53
2023-05-01T21:06:16.774Z,96666.47
2023-05-01T21:11:19.516Z,96661.84
2023-05-01T21:16:22.125Z,96674.31
2023-05-01T21:21:26.613Z,96709.06
2023-05-01T21:26:29.677Z,96652.16
2023-05-01T21:31:37.010Z,96675.66
2023-05-01T21:36:45.320Z,96690.25
2023-05-01T21:41:49.696Z,96691.56
2023-05-01T21:46:56.520Z,96676.34
2023-05-01T21:52:00.593Z,96700.28
2023-05-01T21:57:05.747Z,96707.56
2023-05-01T22:02:10.289Z,96724.41
2023-05-01T22:07:13.167Z,96678.84
2023-05-01T22:12:15.877Z,96699.97
2023-05-01T22:17:24.456Z,96698.97
2023-05-01T22:22:27.139Z,96704.63
2023-05-01T22:27:29.776Z,96706.72
2023-05-01T22:32:32.603Z,96721.16
2023-05-01T22:37:35.306Z,96712.78
2023-05-01T22:42:37.895Z,96729.03
2023-05-01T22:47:40.709Z,96696.97
2023-05-01T22:52:45.869Z,96718.06
2023-05-01T22:57:49.163Z,96716.78
2023-05-01T23:02:52.061Z,96719.75
2023-05-01T23:07:55.393Z,96747.38
2023-05-01T23:12:58.155Z,96753.16
2023-05-01T23:18:00.805Z,96703.44
2023-05-01T23:23:12.281Z,96726.28
2023-05-01T23:28:20.856Z,96748.16
2023-05-01T23:33:26.531Z,96682.06
2023-05-01T23:38:29.315Z,96742.50
2023-05-01T23:43:32.816Z,96722.16
2023-05-01T23:48:35.552Z,96730.56
2023-05-01T23:53:37.921Z,96698.34
2023-05-01T23:58:40.839Z,96727.41
